Time;durP1;ratioP1;P1;durP2;ratioP2;P2;SDS_P1;SDS_P2;PMS_P1;PMS_P2;Temp;Humidity;BMP_temperature;BMP_pressure;BME280_temperature;BME280_humidity;BME280_pressure;Samples;Min_cycle;Max_cycle;Signal;HPM_P1;HPM_P2
2022/06/21 00:01:15;;;;;;;0.10;0.10;;;12.20;99.90;;;;;;5108750;28;20048;-78
2022/06/21 00:03:42;;;;;;;0.10;0.10;;;12.10;99.90;;;;;;5108808;28;20232;-78
2022/06/21 00:06:14;;;;;;;0.35;0.15;;;12.10;99.90;;;;;;5141975;28;20141;-78
2022/06/21 00:08:41;;;;;;;0.10;0.10;;;12.10;99.90;;;;;;5125631;28;20051;-78
2022/06/21 00:11:17;;;;;;;0.10;0.10;;;12.20;99.90;;;;;;5108677;28;20516;-78
2022/06/21 00:13:44;;;;;;;0.10;0.10;;;12.20;99.90;;;;;;5142627;28;20036;-79
2022/06/21 00:16:13;;;;;;;0.10;0.10;;;12.20;99.90;;;;;;5125358;28;20127;-78
2022/06/21 00:18:42;;;;;;;0.10;0.10;;;12.30;99.90;;;;;;5125216;28;20051;-78
2022/06/21 00:21:17;;;;;;;0.10;0.10;;;12.30;99.90;;;;;;5125599;28;20028;-78
2022/06/21 00:23:44;;;;;;;0.10;0.10;;;12.30;99.90;;;;;;5125453;28;20040;-78
2022/06/21 00:26:13;;;;;;;0.00;0.00;;;12.30;99.90;;;;;;5108196;28;20048;-78
2022/06/21 00:28:41;;;;;;;0.10;0.10;;;12.30;99.90;;;;;;5108670;28;20036;-78
2022/06/21 00:31:15;;;;;;;0.10;0.10;;;12.40;99.90;;;;;;5125060;28;20550;-78
2022/06/21 00:33:42;;;;;;;0.10;0.10;;;12.40;99.90;;;;;;5125477;28;20505;-78
2022/06/21 00:36:27;;;;;;;0.10;0.10;;;12.40;99.90;;;;;;5124855;28;20132;-79
2022/06/21 00:38:56;;;;;;;0.00;0.00;;;12.40;99.90;;;;;;5108423;28;20490;-78
2022/06/21 00:41:37;;;;;;;0.10;0.10;;;12.40;99.90;;;;;;5110708;28;20043;-78
2022/06/21 00:44:07;;;;;;;0.15;0.10;;;12.50;99.90;;;;;;5112437;28;20066;-78
2022/06/21 00:46:43;;;;;;;0.10;0.10;;;12.50;99.90;;;;;;5111908;28;20434;-79
2022/06/21 00:49:27;;;;;;;0.10;0.10;;;12.40;99.90;;;;;;5129452;28;20040;-78
2022/06/21 00:51:59;;;;;;;0.10;0.00;;;12.40;99.90;;;;;;5128955;28;20131;-78
2022/06/21 00:54:33;;;;;;;0.10;0.10;;;12.30;99.90;;;;;;5112114;28;20032;-78
2022/06/21 00:57:16;;;;;;;0.20;0.20;;;12.30;99.90;;;;;;5129202;28;20442;-79
2022/06/21 00:59:46;;;;;;;0.10;0.10;;;12.20;99.90;;;;;;5112028;28;20130;-78
2022/06/21 01:02:18;;;;;;;0.17;0.17;;;12.20;99.90;;;;;;5128766;28;20035;-78
2022/06/21 01:04:50;;;;;;;0.10;0.10;;;12.10;99.90;;;;;;5112241;28;20079;-78
2022/06/21 01:07:17;;;;;;;0.10;0.10;;;12.10;99.90;;;;;;5128511;28;20055;-78
2022/06/21 01:10:04;;;;;;;0.20;0.20;;;12.10;99.90;;;;;;5128984;28;20047;-79
2022/06/21 01:12:57;;;;;;;0.22;0.10;;;12.10;99.90;;;;;;5128656;28;20096;-79
2022/06/21 01:15:30;;;;;;;0.28;0.28;;;12.00;99.90;;;;;;5128411;28;20032;-78
2022/06/21 01:18:00;;;;;;;0.10;0.10;;;12.00;99.90;;;;;;5128797;28;20074;-79
2022/06/21 01:20:35;;;;;;;0.15;0.15;;;12.00;99.90;;;;;;5128330;28;20062;-78
2022/06/21 01:23:24;;;;;;;0.10;0.10;;;11.90;99.90;;;;;;5128661;28;20039;-78
2022/06/21 01:26:15;;;;;;;0.20;0.20;;;11.90;99.90;;;;;;5128332;28;20116;-78
2022/06/21 01:28:43;;;;;;;0.10;0.10;;;11.90;99.90;;;;;;5128185;28;20071;-79
2022/06/21 01:31:09;;;;;;;0.10;0.10;;;12.00;99.90;;;;;;5128174;28;20036;-78
2022/06/21 01:33:39;;;;;;;0.10;0.10;;;12.00;99.90;;;;;;5144928;28;20101;-78
2022/06/21 01:36:11;;;;;;;0.08;0.08;;;12.00;99.90;;;;;;5127991;28;20062;-78
2022/06/21 01:38:44;;;;;;;0.20;0.20;;;12.00;99.90;;;;;;5111745;28;20044;-79
2022/06/21 01:41:18;;;;;;;0.00;0.00;;;12.00;99.90;;;;;;5145500;28;20492;-79
2022/06/21 01:43:48;;;;;;;0.00;0.00;;;12.00;99.90;;;;;;5128108;28;20113;-78
2022/06/21 01:46:20;;;;;;;0.10;0.10;;;11.90;99.90;;;;;;5111278;28;20059;-78
2022/06/21 01:48:53;;;;;;;0.10;0.10;;;11.80;99.90;;;;;;5111111;28;20039;-78
2022/06/21 01:51:32;;;;;;;0.10;0.10;;;11.80;99.90;;;;;;5127098;28;20591;-79
2022/06/21 01:54:01;;;;;;;0.10;0.10;;;11.80;99.90;;;;;;5128000;28;20043;-79
2022/06/21 01:56:34;;;;;;;0.10;0.10;;;11.80;99.90;;;;;;5120311;28;20041;-79
2022/06/21 01:59:11;;;;;;;0.10;0.10;;;11.80;99.90;;;;;;5123962;28;20035;-79
2022/06/21 02:01:45;;;;;;;0.13;0.13;;;11.70;99.90;;;;;;5110576;28;20037;-79
2022/06/21 02:04:16;;;;;;;0.28;0.10;;;11.70;99.90;;;;;;5105249;28;20041;-79
2022/06/21 02:06:45;;;;;;;0.15;0.15;;;11.60;99.90;;;;;;5124894;28;20048;-78
2022/06/21 02:09:20;;;;;;;0.35;0.15;;;11.60;99.90;;;;;;5127316;28;20119;-78
2022/06/21 02:11:53;;;;;;;0.10;0.10;;;11.50;99.90;;;;;;5127062;28;20048;-79
2022/06/21 02:14:30;;;;;;;0.20;0.20;;;11.50;99.90;;;;;;5110473;28;20507;-79
2022/06/21 02:17:06;;;;;;;0.15;0.15;;;11.60;99.90;;;;;;5110908;28;20044;-79
2022/06/21 02:19:43;;;;;;;0.10;0.10;;;11.50;99.90;;;;;;5110584;28;20040;-79
2022/06/21 02:22:22;;;;;;;0.28;0.25;;;11.40;99.90;;;;;;5110639;28;20489;-79
2022/06/21 02:24:50;;;;;;;0.10;0.10;;;11.40;99.90;;;;;;5110038;28;20089;-78
2022/06/21 02:27:21;;;;;;;0.10;0.10;;;11.40;99.90;;;;;;5127370;28;20094;-78
2022/06/21 02:29:51;;;;;;;0.30;0.20;;;11.30;99.90;;;;;;5110260;28;20039;-79
2022/06/21 02:32:34;;;;;;;0.25;0.20;;;11.30;99.90;;;;;;5127462;28;20148;-79
2022/06/21 02:35:34;;;;;;;0.10;0.10;;;11.30;99.90;;;;;;5110408;28;20052;-79
2022/06/21 02:38:05;;;;;;;0.13;0.13;;;11.30;99.90;;;;;;5106690;28;20040;-79
2022/06/21 02:40:37;;;;;;;0.10;0.10;;;11.30;99.90;;;;;;5126763;28;20043;-79
2022/06/21 02:43:32;;;;;;;0.45;0.10;;;11.20;99.90;;;;;;5126556;28;20036;-78
2022/06/21 02:46:08;;;;;;;0.68;0.25;;;11.20;99.90;;;;;;5143537;28;20040;-79
2022/06/21 02:48:43;;;;;;;0.32;0.20;;;11.20;99.90;;;;;;5126483;28;20385;-78
2022/06/21 02:51:26;;;;;;;0.10;0.10;;;11.20;99.90;;;;;;5109512;28;20047;-78
2022/06/21 02:54:18;;;;;;;0.20;0.20;;;11.30;99.90;;;;;;5143059;28;20060;-78
2022/06/21 02:56:53;;;;;;;0.00;0.00;;;11.20;99.90;;;;;;5109285;28;20036;-78
2022/06/21 02:59:20;;;;;;;0.10;0.10;;;11.20;99.90;;;;;;5126875;28;20151;-79
2022/06/21 03:01:54;;;;;;;0.13;0.13;;;11.20;99.90;;;;;;5125974;28;20127;-78
2022/06/21 03:04:35;;;;;;;0.13;0.13;;;11.10;99.90;;;;;;5143467;28;20051;-79
2022/06/21 03:07:03;;;;;;;0.15;0.13;;;11.10;99.90;;;;;;5125968;28;20476;-79
2022/06/21 03:09:31;;;;;;;0.10;0.10;;;11.10;99.90;;;;;;5126406;28;20036;-79
2022/06/21 03:12:04;;;;;;;0.20;0.20;;;11.10;99.90;;;;;;5143567;28;20131;-79
2022/06/21 03:14:33;;;;;;;0.10;0.10;;;11.10;99.90;;;;;;5126046;28;20044;-78
2022/06/21 03:17:02;;;;;;;0.10;0.10;;;11.00;99.90;;;;;;5109444;28;20381;-78
2022/06/21 03:19:37;;;;;;;0.20;0.20;;;11.00;99.90;;;;;;5109380;28;20044;-78
2022/06/21 03:22:21;;;;;;;0.10;0.10;;;11.00;99.90;;;;;;5126427;28;20050;-78
2022/06/21 03:24:51;;;;;;;0.10;0.10;;;10.90;99.90;;;;;;5108907;28;20028;-78
2022/06/21 03:27:33;;;;;;;0.10;0.10;;;10.80;99.90;;;;;;5109622;28;20040;-78
2022/06/21 03:30:00;;;;;;;0.10;0.10;;;10.70;99.90;;;;;;5143150;28;20071;-79
2022/06/21 03:32:33;;;;;;;0.10;0.10;;;10.70;99.90;;;;;;5109088;28;20137;-79
2022/06/21 03:35:02;;;;;;;0.10;0.10;;;10.60;99.90;;;;;;5125166;28;20048;-78
2022/06/21 03:37:29;;;;;;;0.10;0.10;;;10.60;99.90;;;;;;5125960;28;20124;-78
2022/06/21 03:42:46;;;;;;;0.10;0.10;;;10.40;99.90;;;;;;5139855;28;20051;-78
2022/06/21 03:45:31;;;;;;;0.10;0.10;;;10.40;99.90;;;;;;5108666;28;20118;-78
2022/06/21 03:48:07;;;;;;;0.20;0.20;;;10.40;99.90;;;;;;5108480;28;20040;-78
2022/06/21 03:50:44;;;;;;;0.20;0.20;;;10.30;99.90;;;;;;5109036;28;20040;-78
2022/06/21 03:53:25;;;;;;;0.10;0.10;;;10.50;99.90;;;;;;5125934;28;20544;-78
2022/06/21 03:56:03;;;;;;;0.20;0.20;;;10.30;99.90;;;;;;5142201;28;20040;-79
2022/06/21 03:58:39;;;;;;;0.10;0.10;;;10.30;99.90;;;;;;5125646;28;20062;-78
2022/06/21 04:01:41;;;;;;;0.20;0.20;;;10.30;99.90;;;;;;5142691;28;20100;-78
2022/06/21 04:04:35;;;;;;;0.00;0.00;;;10.40;99.90;;;;;;5125590;28;20040;-78
2022/06/21 04:07:20;;;;;;;0.10;0.10;;;10.40;99.90;;;;;;5125309;28;20051;-78
2022/06/21 04:09:49;;;;;;;0.10;0.10;;;10.50;99.90;;;;;;5108367;28;20040;-78
2022/06/21 04:12:36;;;;;;;0.10;0.10;;;10.50;99.90;;;;;;5125658;28;20507;-78
2022/06/21 04:15:15;;;;;;;0.40;0.25;;;10.50;99.90;;;;;;5126177;28;20073;-78
2022/06/21 04:17:55;;;;;;;0.10;0.10;;;10.60;99.90;;;;;;5136761;28;20040;-78
2022/06/21 04:20:28;;;;;;;0.10;0.10;;;10.70;99.90;;;;;;5125205;28;20068;-78
2022/06/21 04:23:08;;;;;;;0.30;0.30;;;10.70;99.90;;;;;;5118577;28;20123;-78
2022/06/21 04:25:42;;;;;;;0.22;0.20;;;10.70;99.90;;;;;;5135370;28;20424;-78
2022/06/21 04:28:14;;;;;;;0.17;0.17;;;10.70;99.90;;;;;;5106236;28;20044;-79
2022/06/21 04:30:50;;;;;;;0.47;0.30;;;10.80;99.90;;;;;;5119340;28;20040;-78
2022/06/21 04:33:37;;;;;;;;;;;10.80;99.90;;;;;;5115889;28;20051;-78
2022/06/21 04:36:10;;;;;;;0.15;0.15;;;10.90;99.90;;;;;;5140138;28;19922;-78
2022/06/21 04:38:47;;;;;;;0.20;0.20;;;10.90;99.90;;;;;;5128961;28;20039;-78
2022/06/21 04:41:38;;;;;;;0.15;0.15;;;10.90;99.90;;;;;;5112730;28;20077;-78
2022/06/21 04:44:07;;;;;;;0.20;0.20;;;11.00;99.90;;;;;;5112248;28;20044;-78
2022/06/21 04:46:42;;;;;;;0.10;0.10;;;11.00;99.90;;;;;;5128824;28;20405;-78
2022/06/21 04:49:19;;;;;;;0.17;0.10;;;11.00;99.90;;;;;;5108663;28;20047;-78
2022/06/21 04:52:04;;;;;;;0.20;0.20;;;11.10;99.90;;;;;;5091550;28;20447;-78
2022/06/21 04:54:34;;;;;;;0.28;0.20;;;11.10;99.90;;;;;;5091948;28;20113;-79
2022/06/21 04:57:12;;;;;;;0.60;0.20;;;11.10;99.90;;;;;;5091822;28;20047;-78
2022/06/21 04:59:53;;;;;;;0.10;0.10;;;11.20;99.90;;;;;;5110594;28;20090;-78
2022/06/21 05:02:41;;;;;;;1.05;0.40;;;11.10;99.90;;;;;;5145961;28;20104;-78
2022/06/21 05:05:17;;;;;;;0.03;0.03;;;11.10;99.90;;;;;;5111724;28;20090;-78
2022/06/21 05:07:48;;;;;;;0.20;0.20;;;11.10;99.90;;;;;;5128782;28;20052;-78
2022/06/21 05:10:23;;;;;;;0.10;0.10;;;11.20;99.90;;;;;;5145650;28;20607;-78
2022/06/21 05:12:52;;;;;;;0.15;0.15;;;11.20;99.90;;;;;;5111612;28;20036;-78
2022/06/21 05:15:24;;;;;;;0.20;0.20;;;11.20;99.90;;;;;;5111795;28;20040;-79
2022/06/21 05:18:21;;;;;;;0.13;0.10;;;11.30;99.90;;;;;;5111339;28;20072;-79
2022/06/21 05:20:55;;;;;;;0.13;0.13;;;11.30;99.90;;;;;;5087697;28;20044;-78
2022/06/21 05:23:23;;;;;;;0.20;0.10;;;11.50;99.90;;;;;;5091447;28;20521;-79
2022/06/21 05:25:50;;;;;;;0.10;0.10;;;11.60;99.90;;;;;;5107544;28;20044;-78
2022/06/21 05:28:37;;;;;;;0.10;0.10;;;11.70;99.90;;;;;;5074737;28;20040;-78
2022/06/21 05:31:17;;;;;;;0.10;0.10;;;11.80;99.90;;;;;;5144427;28;20051;-78
2022/06/21 05:34:18;;;;;;;0.25;0.20;;;11.90;99.90;;;;;;5111430;28;20044;-78
2022/06/21 05:37:07;;;;;;;0.22;0.17;;;12.00;99.90;;;;;;5109809;28;20070;-78
2022/06/21 05:39:44;;;;;;;0.20;0.20;;;12.10;99.90;;;;;;5111006;28;20043;-78
2022/06/21 05:42:14;;;;;;;0.30;0.20;;;12.20;99.90;;;;;;5127997;28;20374;-78
2022/06/21 05:44:52;;;;;;;0.20;0.20;;;12.30;99.90;;;;;;5111078;28;20497;-79
2022/06/21 05:47:22;;;;;;;0.10;0.10;;;12.40;99.90;;;;;;5111062;28;20104;-78
2022/06/21 05:49:50;;;;;;;0.10;0.10;;;12.50;99.90;;;;;;5145328;28;20051;-79
2022/06/21 05:52:23;;;;;;;0.15;0.15;;;12.50;99.90;;;;;;5107553;28;20043;-78
2022/06/21 05:54:58;;;;;;;0.20;0.20;;;12.60;99.90;;;;;;5098791;28;20419;-78
2022/06/21 05:57:38;;;;;;;0.32;0.20;;;12.70;99.90;;;;;;5124104;28;20250;-78
2022/06/21 06:00:16;;;;;;;0.10;0.10;;;12.80;99.90;;;;;;5134595;28;20047;-79
2022/06/21 06:02:48;;;;;;;0.15;0.15;;;12.90;99.90;;;;;;5144474;28;20040;-78
2022/06/21 06:05:29;;;;;;;0.20;0.20;;;13.00;99.90;;;;;;5115706;28;20401;-78
2022/06/21 06:08:00;;;;;;;0.10;0.10;;;13.00;99.90;;;;;;5098497;28;20032;-79
2022/06/21 06:10:30;;;;;;;0.43;0.20;;;13.10;99.90;;;;;;5117196;28;20035;-79
2022/06/21 06:13:07;;;;;;;0.10;0.10;;;13.20;99.90;;;;;;5126656;28;20036;-79
2022/06/21 06:15:40;;;;;;;0.30;0.20;;;13.30;99.90;;;;;;5110384;28;20538;-79
2022/06/21 06:18:16;;;;;;;0.10;0.10;;;13.40;99.90;;;;;;5127224;28;20042;-79
2022/06/21 06:20:52;;;;;;;0.10;0.10;;;13.50;99.90;;;;;;5109781;28;20040;-78
2022/06/21 06:23:33;;;;;;;0.30;0.30;;;13.50;99.90;;;;;;5128246;28;20043;-78
2022/06/21 06:26:23;;;;;;;0.08;0.08;;;13.60;99.90;;;;;;5135766;28;20048;-78
2022/06/21 06:29:05;;;;;;;0.30;0.22;;;13.80;99.90;;;;;;5100623;28;20047;-78
2022/06/21 06:31:39;;;;;;;0.25;0.20;;;14.00;99.90;;;;;;5114434;28;20042;-78
2022/06/21 06:34:12;;;;;;;0.73;0.28;;;14.20;99.90;;;;;;5100152;28;20040;-79
2022/06/21 06:36:50;;;;;;;0.20;0.20;;;14.30;99.90;;;;;;5106792;28;20173;-79
2022/06/21 06:39:21;;;;;;;0.10;0.10;;;14.20;99.90;;;;;;5133216;28;20032;-79
2022/06/21 06:42:06;;;;;;;0.03;0.03;;;14.20;99.90;;;;;;5122185;28;20036;-79
2022/06/21 06:44:39;;;;;;;0.15;0.15;;;14.20;99.90;;;;;;5116800;28;20047;-79
2022/06/21 06:47:15;;;;;;;0.17;0.17;;;14.10;99.90;;;;;;5109450;28;20048;-78
2022/06/21 06:50:15;;;;;;;0.20;0.20;;;14.10;99.90;;;;;;5125276;28;20071;-78
2022/06/21 06:52:56;;;;;;;0.22;0.15;;;14.10;99.90;;;;;;5095279;28;20113;-78
2022/06/21 06:55:26;;;;;;;0.20;0.20;;;14.20;99.90;;;;;;5109067;28;20412;-78
2022/06/21 06:57:57;;;;;;;0.15;0.15;;;14.40;99.90;;;;;;5143617;28;20039;-79
2022/06/21 07:00:35;;;;;;;0.10;0.10;;;14.40;99.90;;;;;;5109449;28;20536;-79
2022/06/21 07:03:20;;;;;;;2.45;0.20;;;14.40;99.90;;;;;;5125746;28;20036;-78
2022/06/21 07:05:52;;;;;;;0.13;0.13;;;14.60;99.90;;;;;;5118197;28;20040;-79
2022/06/21 07:08:24;;;;;;;0.10;0.10;;;14.70;99.90;;;;;;5093162;28;20497;-80
2022/06/21 07:10:54;;;;;;;0.17;0.17;;;14.80;99.90;;;;;;5133402;28;20032;-78
2022/06/21 07:13:20;;;;;;;0.15;0.10;;;14.80;99.90;;;;;;5107919;28;20047;-80
2022/06/21 07:15:49;;;;;;;0.05;0.05;;;14.90;99.90;;;;;;5108768;28;20046;-78
2022/06/21 07:18:31;;;;;;;0.32;0.22;;;15.00;99.90;;;;;;5108344;28;20039;-81
2022/06/21 07:20:59;;;;;;;0.10;0.10;;;15.00;99.90;;;;;;5125327;28;20408;-79
2022/06/21 07:23:28;;;;;;;0.13;0.10;;;15.10;99.90;;;;;;5108879;28;20519;-79
2022/06/21 07:26:03;;;;;;;0.08;0.08;;;15.20;99.90;;;;;;5108579;28;20044;-78
2022/06/21 07:28:51;;;;;;;0.10;0.10;;;15.30;99.90;;;;;;5142601;28;20553;-79
2022/06/21 07:31:28;;;;;;;0.13;0.13;;;15.40;99.90;;;;;;5108747;28;20406;-79
2022/06/21 07:34:03;;;;;;;0.00;0.00;;;15.50;99.90;;;;;;5123749;28;20111;-79
2022/06/21 07:36:46;;;;;;;1.08;0.32;;;15.60;99.90;;;;;;5105133;28;20048;-79
2022/06/21 07:39:38;;;;;;;0.20;0.20;;;15.70;99.90;;;;;;5129949;28;20079;-78
2022/06/21 07:42:10;;;;;;;0.05;0.05;;;15.70;99.90;;;;;;5100468;28;20044;-78
2022/06/21 07:44:43;;;;;;;0.17;0.17;;;15.70;99.90;;;;;;5100116;28;20046;-78
2022/06/21 07:47:35;;;;;;;0.32;0.15;;;15.60;99.90;;;;;;5146762;27;20071;-79
2022/06/21 07:50:14;;;;;;;0.20;0.20;;;15.50;99.90;;;;;;5121448;28;20097;-79
2022/06/21 07:52:50;;;;;;;0.35;0.20;;;15.70;99.90;;;;;;5117524;28;20044;-79
2022/06/21 07:55:30;;;;;;;0.17;0.17;;;15.90;99.90;;;;;;5148614;27;20655;-79
2022/06/21 07:58:02;;;;;;;0.10;0.10;;;16.00;99.90;;;;;;5100804;28;20036;-79
2022/06/21 08:06:41;;;;;;;0.10;0.10;;;16.30;99.90;;;;;;5107615;28;20029;-79
2022/06/21 08:09:31;;;;;;;0.20;0.20;;;16.50;99.90;;;;;;5046191;28;20057;-79
2022/06/21 08:12:00;;;;;;;0.32;0.20;;;16.80;99.90;;;;;;5100771;28;20048;-79
2022/06/21 08:14:34;;;;;;;0.63;0.30;;;17.10;99.90;;;;;;5080375;28;20484;-79
2022/06/21 08:17:08;;;;;;;0.20;0.20;;;17.30;99.90;;;;;;5105023;28;20089;-79
2022/06/21 08:19:46;;;;;;;0.10;0.10;;;17.30;99.90;;;;;;5115613;28;20032;-79
2022/06/21 08:22:56;;;;;;;0.10;0.10;;;17.20;99.90;;;;;;5101502;28;20169;-79
2022/06/21 08:25:36;;;;;;;0.35;0.28;;;17.10;99.90;;;;;;5122590;28;20036;-80
2022/06/21 08:28:16;;;;;;;0.13;0.10;;;17.00;99.90;;;;;;5128814;28;20040;-80
2022/06/21 08:30:46;;;;;;;0.10;0.10;;;16.90;99.90;;;;;;5103335;28;20145;-79
2022/06/21 08:33:34;;;;;;;0.15;0.15;;;16.80;99.90;;;;;;5106661;28;20582;-79
2022/06/21 08:36:13;;;;;;;0.17;0.10;;;16.90;99.90;;;;;;5144211;28;20052;-78
2022/06/21 08:38:56;;;;;;;0.00;0.00;;;17.20;99.90;;;;;;5115265;28;20110;-80
2022/06/21 08:41:52;;;;;;;0.10;0.10;;;17.40;99.90;;;;;;5106966;28;20091;-79
2022/06/21 08:44:40;;;;;;;;;;;17.70;99.90;;;;;;5107448;28;20040;-79
2022/06/21 08:47:45;;;;;;;0.40;0.40;;;17.80;99.90;;;;;;5158081;27;19924;-79
2022/06/21 08:50:36;;;;;;;0.10;0.10;;;18.00;99.90;;;;;;5107038;28;20072;-78
2022/06/21 08:53:36;;;;;;;0.10;0.10;;;18.30;99.90;;;;;;5124688;28;20047;-79
2022/06/21 08:56:30;;;;;;;0.20;0.17;;;18.50;99.90;;;;;;5124307;28;20047;-79
2022/06/21 08:59:15;;;;;;;0.30;0.20;;;18.30;99.90;;;;;;5116326;28;20079;-79
2022/06/21 09:02:12;;;;;;;0.10;0.10;;;18.20;99.90;;;;;;5119638;28;20275;-80
2022/06/21 09:04:45;;;;;;;0.25;0.22;;;18.30;99.90;;;;;;5102868;28;20477;-80
2022/06/21 09:07:46;;;;;;;0.20;0.20;;;18.50;99.90;;;;;;5111314;28;20057;-79
2022/06/21 09:10:38;;;;;;;8.02;0.52;;;18.80;99.90;;;;;;5124533;28;20903;-80
2022/06/21 09:13:25;;;;;;;0.30;0.30;;;19.00;99.90;;;;;;5159350;27;20112;-79
2022/06/21 09:16:05;;;;;;;0.43;0.22;;;19.20;99.90;;;;;;5128472;28;20048;-79
2022/06/21 09:18:51;;;;;;;0.08;0.08;;;19.00;99.90;;;;;;5106337;28;20036;-79
2022/06/21 09:21:33;;;;;;;0.10;0.10;;;18.90;99.90;;;;;;5134664;28;20032;-80
2022/06/21 09:24:21;;;;;;;0.15;0.10;;;18.70;99.90;;;;;;5107566;28;20039;-79
2022/06/21 09:27:04;;;;;;;0.08;0.08;;;18.80;99.90;;;;;;5138380;28;20043;-78
2022/06/21 09:29:39;;;;;;;1.65;0.30;;;18.70;99.90;;;;;;5121332;28;20035;-79
2022/06/21 09:32:18;;;;;;;0.20;0.20;;;18.70;99.90;;;;;;5110286;28;20048;-79
2022/06/21 09:34:51;;;;;;;0.10;0.10;;;18.60;99.90;;;;;;5144151;28;20050;-79
2022/06/21 09:37:23;;;;;;;0.32;0.25;;;18.50;99.90;;;;;;5126628;28;20044;-79
2022/06/21 09:39:56;;;;;;;0.10;0.10;;;18.40;99.90;;;;;;5127258;28;20062;-80
2022/06/21 09:42:38;;;;;;;0.15;0.10;;;18.50;99.90;;;;;;5110226;28;20776;-79
2022/06/21 09:45:21;;;;;;;0.20;0.20;;;18.70;99.90;;;;;;5110867;28;20051;-79
2022/06/21 09:48:21;;;;;;;0.10;0.10;;;18.90;99.90;;;;;;5127652;28;20120;-79
2022/06/21 09:50:57;;;;;;;0.52;0.30;;;19.10;99.90;;;;;;5128050;28;20086;-79
2022/06/21 09:53:47;;;;;;;0.10;0.10;;;19.20;99.90;;;;;;5109790;28;20355;-80
2022/06/21 09:56:23;;;;;;;0.10;0.10;;;19.40;99.90;;;;;;5110372;28;20113;-80
2022/06/21 09:58:53;;;;;;;0.10;0.10;;;19.50;99.90;;;;;;5110613;28;20377;-79
2022/06/21 10:01:45;;;;;;;0.10;0.10;;;19.70;99.90;;;;;;5143497;28;20063;-79
2022/06/21 10:04:38;;;;;;;0.52;0.45;;;19.50;99.90;;;;;;5103804;28;20544;-79
2022/06/21 10:07:23;;;;;;;0.38;0.28;;;19.40;99.90;;;;;;5110281;28;20445;-79
2022/06/21 10:10:17;;;;;;;0.40;0.20;;;19.50;99.90;;;;;;5101403;28;20044;-79
2022/06/21 10:13:21;;;;;;;0.13;0.13;;;19.70;99.90;;;;;;5134200;28;20044;-79
2022/06/21 10:16:20;;;;;;;0.10;0.10;;;20.00;99.90;;;;;;5128498;28;20088;-79
2022/06/21 10:18:54;;;;;;;0.10;0.10;;;20.40;99.90;;;;;;5109581;28;20493;-79
2022/06/21 10:21:43;;;;;;;0.33;0.30;;;20.30;99.90;;;;;;5126912;28;20095;-79
2022/06/21 10:24:28;;;;;;;0.17;0.17;;;20.10;99.90;;;;;;5108714;28;20040;-79
2022/06/21 10:27:06;;;;;;;0.10;0.10;;;20.00;99.90;;;;;;5101836;28;20048;-80
2022/06/21 10:30:01;;;;;;;0.40;0.30;;;20.20;99.90;;;;;;5127150;28;20313;-80
2022/06/21 10:32:51;;;;;;;0.10;0.10;;;20.30;99.90;;;;;;5110105;28;20051;-80
2022/06/21 10:35:33;;;;;;;0.20;0.10;;;20.60;99.90;;;;;;5125839;28;20055;-80
2022/06/21 10:38:18;;;;;;;0.10;0.10;;;20.90;99.90;;;;;;5110841;28;20048;-80
2022/06/21 10:41:01;;;;;;;0.13;0.10;;;21.10;99.90;;;;;;5111201;28;20040;-81
2022/06/21 10:43:44;;;;;;;0.10;0.10;;;21.00;99.90;;;;;;5127508;28;20093;-80
2022/06/21 10:46:10;;;;;;;0.55;0.20;;;20.70;99.90;;;;;;5109431;28;20128;-82
2022/06/21 10:48:52;;;;;;;0.20;0.17;;;20.60;99.80;;;;;;5133747;28;20075;-80
2022/06/21 10:51:40;;;;;;;0.10;0.10;;;20.50;99.90;;;;;;5137126;28;20040;-80
2022/06/21 10:54:24;;;;;;;0.30;0.20;;;20.30;99.90;;;;;;5126157;28;20051;-81
2022/06/21 10:57:09;;;;;;;0.05;0.05;;;20.60;99.90;;;;;;5103072;28;20131;-81
2022/06/21 11:02:47;;;;;;;0.17;0.17;;;21.10;99.60;;;;;;5156442;27;20036;-81
2022/06/21 11:05:34;;;;;;;0.17;0.17;;;21.10;99.90;;;;;;5119947;28;20060;-81
2022/06/21 11:08:40;;;;;;;0.25;0.25;;;21.30;99.90;;;;;;5103537;28;20046;-81
2022/06/21 11:11:14;;;;;;;0.10;0.10;;;21.60;98.40;;;;;;5100843;28;20052;-81
2022/06/21 11:13:56;;;;;;;0.13;0.13;;;21.70;97.40;;;;;;5126531;28;20038;-81
2022/06/21 11:16:36;;;;;;;0.20;0.17;;;21.60;97.50;;;;;;5126316;28;20535;-80
2022/06/21 11:19:36;;;;;;;0.13;0.13;;;21.70;96.90;;;;;;5106861;28;20040;-81
2022/06/21 11:22:24;;;;;;;0.20;0.20;;;21.90;98.00;;;;;;5109650;28;20100;-81
2022/06/21 11:25:16;;;;;;;0.30;0.30;;;22.00;97.30;;;;;;5144941;27;20060;-80
2022/06/21 11:28:09;;;;;;;0.10;0.10;;;22.00;95.90;;;;;;5122269;28;20468;-81
2022/06/21 11:30:49;;;;;;;0.20;0.20;;;22.00;95.40;;;;;;5102437;28;20032;-81
2022/06/21 11:33:35;;;;;;;0.52;0.30;;;22.20;96.20;;;;;;5110243;28;20485;-81
2022/06/21 11:36:11;;;;;;;0.25;0.20;;;22.20;95.80;;;;;;5089504;28;20055;-81
2022/06/21 11:38:55;;;;;;;0.25;0.25;;;22.30;96.20;;;;;;5089046;28;20043;-81
2022/06/21 11:42:05;;;;;;;0.17;0.17;;;22.40;96.70;;;;;;5122888;28;20044;-81
2022/06/21 11:44:40;;;;;;;0.25;0.25;;;22.40;96.50;;;;;;5105894;28;20028;-81
2022/06/21 11:47:11;;;;;;;0.25;0.22;;;22.60;95.60;;;;;;5101596;28;20126;-81
2022/06/21 11:49:47;;;;;;;0.25;0.20;;;22.80;95.60;;;;;;5134145;28;20044;-80
2022/06/21 11:52:32;;;;;;;0.20;0.20;;;22.80;95.00;;;;;;5105892;28;20071;-81
2022/06/21 11:55:27;;;;;;;4.75;0.77;;;22.80;96.30;;;;;;5123147;28;20076;-81
2022/06/21 11:58:02;;;;;;;0.63;0.40;;;22.80;95.60;;;;;;5106148;28;20037;-80
2022/06/21 12:00:43;;;;;;;0.20;0.20;;;22.80;95.70;;;;;;5146443;27;20036;-80
2022/06/21 12:03:25;;;;;;;0.20;0.20;;;22.70;97.30;;;;;;5126298;28;20079;-81
2022/06/21 12:05:57;;;;;;;0.65;0.43;;;22.60;95.70;;;;;;5142043;28;20044;-80
2022/06/21 12:09:00;;;;;;;0.15;0.15;;;22.50;94.90;;;;;;5126241;28;20086;-80
2022/06/21 12:11:39;;;;;;;0.22;0.22;;;22.50;95.10;;;;;;5107181;28;20044;-81
2022/06/21 12:14:37;;;;;;;0.22;0.22;;;22.30;94.50;;;;;;5104663;28;20047;-80
2022/06/21 12:17:38;;;;;;;0.13;0.13;;;22.40;94.80;;;;;;5038260;28;20053;-84
2022/06/21 12:20:21;;;;;;;0.10;0.10;;;22.40;94.10;;;;;;5125060;28;20036;-80
2022/06/21 12:23:01;;;;;;;0.25;0.25;;;22.30;94.80;;;;;;5125717;28;20085;-82
2022/06/21 12:25:28;;;;;;;0.20;0.20;;;22.30;95.50;;;;;;5125066;28;20488;-81
2022/06/21 12:27:58;;;;;;;0.30;0.30;;;22.50;96.30;;;;;;5075803;28;20094;-82
2022/06/21 12:30:28;;;;;;;0.65;0.22;;;22.50;95.80;;;;;;5075984;28;20040;-81
2022/06/21 12:33:02;;;;;;;0.10;0.10;;;22.60;95.70;;;;;;5108398;28;20047;-80
2022/06/21 12:35:51;;;;;;;0.32;0.30;;;22.70;94.20;;;;;;5124132;28;20095;-81
2022/06/21 12:38:27;;;;;;;0.13;0.13;;;22.70;91.60;;;;;;5146872;28;20217;-80
2022/06/21 12:41:14;;;;;;;0.22;0.22;;;22.70;93.50;;;;;;5112471;28;20039;-81
2022/06/21 12:43:54;;;;;;;0.17;0.17;;;22.70;95.00;;;;;;5095141;28;20039;-81
2022/06/21 12:46:39;;;;;;;0.20;0.20;;;22.80;93.40;;;;;;5112059;28;20394;-81
2022/06/21 12:49:27;;;;;;;0.17;0.17;;;22.90;94.30;;;;;;5112576;28;20101;-82
2022/06/21 12:52:00;;;;;;;0.20;0.20;;;23.00;90.80;;;;;;5112202;28;20545;-81
2022/06/21 12:54:45;;;;;;;0.17;0.17;;;23.00;90.90;;;;;;5111931;28;20468;-82
2022/06/21 12:57:32;;;;;;;0.20;0.20;;;22.80;88.30;;;;;;5111685;28;20043;-81
2022/06/21 13:00:14;;;;;;;0.20;0.20;;;22.90;90.00;;;;;;5129241;28;20040;-82
2022/06/21 13:03:13;;;;;;;0.13;0.13;;;22.90;91.50;;;;;;5091707;28;20142;-82
2022/06/21 13:05:50;;;;;;;0.15;0.13;;;22.90;88.10;;;;;;5145535;27;20040;-82
2022/06/21 13:08:41;;;;;;;0.20;0.20;;;22.80;90.70;;;;;;5112192;28;20040;-82
2022/06/21 13:11:33;;;;;;;0.20;0.20;;;22.90;90.80;;;;;;5128905;28;20047;-82
2022/06/21 13:14:22;;;;;;;0.20;0.20;;;23.10;92.10;;;;;;5111587;28;20047;-80
2022/06/21 13:16:49;;;;;;;0.20;0.20;;;23.10;91.50;;;;;;5111272;28;20031;-80
2022/06/21 13:19:45;;;;;;;0.10;0.10;;;23.10;91.80;;;;;;5128416;28;20520;-79
2022/06/21 13:22:32;;;;;;;0.10;0.10;;;23.10;91.80;;;;;;5112106;28;20126;-79
2022/06/21 13:25:17;;;;;;;0.10;0.10;;;23.30;92.30;;;;;;5094970;28;20047;-79
2022/06/21 13:28:15;;;;;;;0.25;0.25;;;23.20;87.50;;;;;;5111522;28;20046;-80
2022/06/21 13:30:51;;;;;;;0.30;0.22;;;23.10;90.00;;;;;;5128571;28;20050;-80
2022/06/21 13:33:30;;;;;;;0.10;0.10;;;22.90;85.70;;;;;;5128895;28;20109;-80
2022/06/21 13:36:23;;;;;;;0.15;0.10;;;22.80;88.10;;;;;;5111532;28;20131;-80
2022/06/21 13:38:59;;;;;;;1.02;0.32;;;22.60;90.20;;;;;;5145219;28;20052;-80
2022/06/21 13:44:43;;;;;;;0.10;0.10;;;22.70;91.30;;;;;;5162307;27;20070;-79
2022/06/21 13:47:28;;;;;;;0.55;0.40;;;22.70;91.40;;;;;;5110752;28;20100;-80
2022/06/21 13:50:04;;;;;;;0.30;0.30;;;22.70;91.80;;;;;;5144682;28;20758;-79
2022/06/21 13:52:42;;;;;;;0.20;0.20;;;22.70;91.70;;;;;;5128410;28;20082;-79
2022/06/21 13:55:32;;;;;;;0.52;0.30;;;22.60;91.70;;;;;;5128318;28;20131;-80
2022/06/21 13:58:22;;;;;;;0.10;0.10;;;22.70;91.90;;;;;;5128073;28;20381;-80
2022/06/21 14:01:06;;;;;;;0.20;0.20;;;22.90;92.20;;;;;;5091089;28;20079;-80
2022/06/21 14:03:56;;;;;;;0.35;0.20;;;22.80;90.90;;;;;;5124621;28;20072;-80
2022/06/21 14:06:28;;;;;;;1.20;0.28;;;22.80;91.10;;;;;;5080185;28;20105;-79